EMA weather

East Midlands Airport
Nottingham, England, United Kingdom

Public forecast

Using degrees Celsius for public forecast. Weather courtesy of forecast.io.

METAR (pilot weather report)

Retrieved 2019/03/19 07:20 UTC (6 minutes ago):

EGNX 190720Z 24007KT 9999 BKN023 07/07 Q1025

TAF (pilot weather forecast)

Forecast is more than 12 hours old.

Retrieved 2019/03/18 00:00 UTC (1 day ago):

TAF EGNX 182257Z 1900/1924 23007KT 9999 SCT018 TEMPO 1900/1915 BKN014 PROB30 TEMPO 1900/1908 9000 -RA BKN009 BECMG 1919/1922 BKN008 PROB30 TEMPO 1921/1924 6000 -RADZ